sensor_id;sensor_type;location;lat;lon;timestamp;pressure;altitude;pressure_sealevel;temperature;humidity
56689;BME280;42565;53.342;-1.534;2023-08-07T00:01:24;99304.56;;;14.12;68.63
56689;BME280;42565;53.342;-1.534;2023-08-07T00:03:52;99304.41;;;13.89;69.07
56689;BME280;42565;53.342;-1.534;2023-08-07T00:06:19;99301.92;;;14.17;67.80
56689;BME280;42565;53.342;-1.534;2023-08-07T00:08:45;99298.53;;;15.06;66.72
56689;BME280;42565;53.342;-1.534;2023-08-07T00:11:12;99299.30;;;13.86;68.32
56689;BME280;42565;53.342;-1.534;2023-08-07T00:13:40;99297.38;;;14.42;69.26
56689;BME280;42565;53.342;-1.534;2023-08-07T00:16:07;99296.80;;;14.86;67.56
56689;BME280;42565;53.342;-1.534;2023-08-07T00:18:34;99297.01;;;14.04;68.91
56689;BME280;42565;53.342;-1.534;2023-08-07T00:21:01;99299.51;;;14.83;67.35
56689;BME280;42565;53.342;-1.534;2023-08-07T00:23:27;99295.56;;;14.79;66.44
56689;BME280;42565;53.342;-1.534;2023-08-07T00:25:55;99292.57;;;14.62;66.46
56689;BME280;42565;53.342;-1.534;2023-08-07T00:28:22;99285.24;;;14.51;66.02
56689;BME280;42565;53.342;-1.534;2023-08-07T00:30:49;99284.83;;;14.67;66.02
56689;BME280;42565;53.342;-1.534;2023-08-07T00:33:16;99276.51;;;13.19;68.35
56689;BME280;42565;53.342;-1.534;2023-08-07T00:35:44;99277.31;;;14.70;66.38
56689;BME280;42565;53.342;-1.534;2023-08-07T00:38:11;99272.45;;;14.25;66.55
56689;BME280;42565;53.342;-1.534;2023-08-07T00:40:39;99276.33;;;14.72;67.09
56689;BME280;42565;53.342;-1.534;2023-08-07T00:43:07;99272.49;;;14.49;66.63
56689;BME280;42565;53.342;-1.534;2023-08-07T00:45:42;99268.99;;;14.99;65.72
56689;BME280;42565;53.342;-1.534;2023-08-07T00:48:10;99266.25;;;14.80;65.35
56689;BME280;42565;53.342;-1.534;2023-08-07T00:50:38;99267.28;;;14.63;65.20
56689;BME280;42565;53.342;-1.534;2023-08-07T00:53:06;99263.45;;;14.70;66.65
56689;BME280;42565;53.342;-1.534;2023-08-07T00:55:33;99262.11;;;14.47;66.88
56689;BME280;42565;53.342;-1.534;2023-08-07T00:58:01;99262.71;;;14.31;67.03
56689;BME280;42565;53.342;-1.534;2023-08-07T01:00:29;99257.49;;;14.14;68.14
56689;BME280;42565;53.342;-1.534;2023-08-07T01:02:56;99253.64;;;14.18;67.63
56689;BME280;42565;53.342;-1.534;2023-08-07T01:05:24;99257.52;;;13.98;67.29
56689;BME280;42565;53.342;-1.534;2023-08-07T01:07:53;99253.50;;;14.44;67.17
56689;BME280;42565;53.342;-1.534;2023-08-07T01:10:25;99253.83;;;13.61;68.14
56689;BME280;42565;53.342;-1.534;2023-08-07T01:12:58;99251.58;;;14.30;67.99
56689;BME280;42565;53.342;-1.534;2023-08-07T01:15:30;99250.98;;;13.85;68.21
56689;BME280;42565;53.342;-1.534;2023-08-07T01:18:00;99244.75;;;13.82;68.20
56689;BME280;42565;53.342;-1.534;2023-08-07T01:20:28;99242.98;;;13.82;68.16
56689;BME280;42565;53.342;-1.534;2023-08-07T01:22:55;99244.13;;;14.32;68.21
56689;BME280;42565;53.342;-1.534;2023-08-07T01:25:23;99236.60;;;13.77;67.93
56689;BME280;42565;53.342;-1.534;2023-08-07T01:27:59;99240.76;;;15.15;65.76
56689;BME280;42565;53.342;-1.534;2023-08-07T01:30:33;99245.12;;;14.30;67.17
56689;BME280;42565;53.342;-1.534;2023-08-07T01:33:09;99244.21;;;14.06;68.95
56689;BME280;42565;53.342;-1.534;2023-08-07T01:35:41;99246.67;;;14.42;67.58
56689;BME280;42565;53.342;-1.534;2023-08-07T01:38:11;99246.97;;;14.05;67.26
56689;BME280;42565;53.342;-1.534;2023-08-07T01:40:39;99250.06;;;14.21;67.48
56689;BME280;42565;53.342;-1.534;2023-08-07T01:43:08;99245.06;;;14.71;66.50
56689;BME280;42565;53.342;-1.534;2023-08-07T01:45:35;99244.07;;;14.38;66.11
56689;BME280;42565;53.342;-1.534;2023-08-07T01:48:03;99240.60;;;14.54;66.48
56689;BME280;42565;53.342;-1.534;2023-08-07T01:50:30;99241.22;;;13.83;67.32
56689;BME280;42565;53.342;-1.534;2023-08-07T01:52:58;99242.16;;;14.78;65.88
56689;BME280;42565;53.342;-1.534;2023-08-07T01:55:25;99244.19;;;14.31;64.93
56689;BME280;42565;53.342;-1.534;2023-08-07T01:57:52;99245.66;;;14.51;65.91
56689;BME280;42565;53.342;-1.534;2023-08-07T02:00:20;99248.57;;;14.11;64.55
56689;BME280;42565;53.342;-1.534;2023-08-07T02:02:48;99246.76;;;14.58;65.94
56689;BME280;42565;53.342;-1.534;2023-08-07T02:05:15;99250.40;;;13.87;66.37
56689;BME280;42565;53.342;-1.534;2023-08-07T02:07:43;99247.39;;;14.44;66.71
56689;BME280;42565;53.342;-1.534;2023-08-07T02:10:10;99242.78;;;13.63;68.25
56689;BME280;42565;53.342;-1.534;2023-08-07T02:12:38;99241.71;;;13.83;68.64
56689;BME280;42565;53.342;-1.534;2023-08-07T02:15:06;99245.66;;;13.95;68.40
56689;BME280;42565;53.342;-1.534;2023-08-07T02:17:34;99243.94;;;13.95;68.23
56689;BME280;42565;53.342;-1.534;2023-08-07T02:20:01;99243.64;;;14.28;67.85
56689;BME280;42565;53.342;-1.534;2023-08-07T02:22:28;99240.63;;;14.21;67.85
56689;BME280;42565;53.342;-1.534;2023-08-07T02:24:55;99242.11;;;14.52;67.19
56689;BME280;42565;53.342;-1.534;2023-08-07T02:27:22;99240.67;;;13.50;68.05
56689;BME280;42565;53.342;-1.534;2023-08-07T02:29:49;99236.56;;;13.74;69.43
56689;BME280;42565;53.342;-1.534;2023-08-07T02:32:16;99237.05;;;13.12;70.09
56689;BME280;42565;53.342;-1.534;2023-08-07T02:34:44;99240.54;;;14.14;68.89
56689;BME280;42565;53.342;-1.534;2023-08-07T02:37:12;99239.58;;;13.49;69.12
56689;BME280;42565;53.342;-1.534;2023-08-07T02:39:39;99234.10;;;13.71;69.86
56689;BME280;42565;53.342;-1.534;2023-08-07T02:42:06;99239.45;;;13.96;69.34
56689;BME280;42565;53.342;-1.534;2023-08-07T02:44:33;99237.85;;;13.84;69.16
56689;BME280;42565;53.342;-1.534;2023-08-07T02:47:01;99234.32;;;13.61;69.91
56689;BME280;42565;53.342;-1.534;2023-08-07T02:49:28;99241.71;;;13.28;70.54
56689;BME280;42565;53.342;-1.534;2023-08-07T02:51:56;99242.35;;;13.60;69.71
56689;BME280;42565;53.342;-1.534;2023-08-07T02:54:23;99242.35;;;13.21;70.53
56689;BME280;42565;53.342;-1.534;2023-08-07T02:56:51;99244.16;;;13.41;71.46
56689;BME280;42565;53.342;-1.534;2023-08-07T02:59:18;99245.07;;;13.20;69.62
56689;BME280;42565;53.342;-1.534;2023-08-07T03:01:45;99243.76;;;14.13;69.77
56689;BME280;42565;53.342;-1.534;2023-08-07T03:04:12;99247.27;;;13.71;69.59
56689;BME280;42565;53.342;-1.534;2023-08-07T03:06:39;99247.97;;;13.36;71.35
56689;BME280;42565;53.342;-1.534;2023-08-07T03:09:07;99248.13;;;14.04;71.15
56689;BME280;42565;53.342;-1.534;2023-08-07T03:11:34;99254.95;;;13.02;72.76
56689;BME280;42565;53.342;-1.534;2023-08-07T03:14:01;99257.38;;;13.67;72.63
56689;BME280;42565;53.342;-1.534;2023-08-07T03:16:29;99261.79;;;13.65;71.87
56689;BME280;42565;53.342;-1.534;2023-08-07T03:18:56;99261.57;;;13.67;71.61
56689;BME280;42565;53.342;-1.534;2023-08-07T03:21:23;99260.91;;;12.88;73.30
56689;BME280;42565;53.342;-1.534;2023-08-07T03:23:51;99254.67;;;13.60;72.63
56689;BME280;42565;53.342;-1.534;2023-08-07T03:26:18;99253.65;;;12.48;74.08
56689;BME280;42565;53.342;-1.534;2023-08-07T03:28:45;99252.58;;;13.10;73.95
56689;BME280;42565;53.342;-1.534;2023-08-07T03:31:13;99247.24;;;13.26;73.13
56689;BME280;42565;53.342;-1.534;2023-08-07T03:33:40;99244.95;;;13.69;73.38
56689;BME280;42565;53.342;-1.534;2023-08-07T03:36:07;99234.75;;;13.93;72.61
56689;BME280;42565;53.342;-1.534;2023-08-07T03:38:34;99248.47;;;13.35;72.95
56689;BME280;42565;53.342;-1.534;2023-08-07T03:41:01;99238.41;;;14.00;72.34
56689;BME280;42565;53.342;-1.534;2023-08-07T03:43:28;99240.98;;;13.56;71.52
56689;BME280;42565;53.342;-1.534;2023-08-07T03:45:55;99243.25;;;13.67;73.12
56689;BME280;42565;53.342;-1.534;2023-08-07T03:48:23;99241.51;;;12.95;73.95
56689;BME280;42565;53.342;-1.534;2023-08-07T03:50:49;99239.70;;;13.65;72.85
56689;BME280;42565;53.342;-1.534;2023-08-07T03:53:17;99233.43;;;13.16;72.74
56689;BME280;42565;53.342;-1.534;2023-08-07T03:55:49;99236.20;;;14.06;70.97
56689;BME280;42565;53.342;-1.534;2023-08-07T03:58:17;99231.22;;;13.14;72.04
56689;BME280;42565;53.342;-1.534;2023-08-07T04:00:44;99230.49;;;13.80;71.19
56689;BME280;42565;53.342;-1.534;2023-08-07T04:03:11;99232.12;;;13.12;72.63
56689;BME280;42565;53.342;-1.534;2023-08-07T04:05:38;99232.74;;;13.32;72.89
56689;BME280;42565;53.342;-1.534;2023-08-07T04:08:06;99236.47;;;13.43;74.08
56689;BME280;42565;53.342;-1.534;2023-08-07T04:10:33;99234.12;;;13.56;73.32
56689;BME280;42565;53.342;-1.534;2023-08-07T04:13:01;99232.45;;;12.82;75.62
56689;BME280;42565;53.342;-1.534;2023-08-07T04:15:29;99232.66;;;13.14;74.84
56689;BME280;42565;53.342;-1.534;2023-08-07T04:17:56;99233.13;;;13.18;75.22
56689;BME280;42565;53.342;-1.534;2023-08-07T04:20:23;99234.57;;;12.86;74.50
56689;BME280;42565;53.342;-1.534;2023-08-07T04:22:50;99243.20;;;12.88;74.71
56689;BME280;42565;53.342;-1.534;2023-08-07T04:25:18;99241.12;;;12.96;74.71
56689;BME280;42565;53.342;-1.534;2023-08-07T04:27:45;99241.32;;;13.49;74.69
56689;BME280;42565;53.342;-1.534;2023-08-07T04:30:12;99244.13;;;13.09;73.35
56689;BME280;42565;53.342;-1.534;2023-08-07T04:32:40;99240.35;;;12.61;73.96
56689;BME280;42565;53.342;-1.534;2023-08-07T04:35:08;99238.08;;;13.58;71.19
56689;BME280;42565;53.342;-1.534;2023-08-07T04:37:35;99244.28;;;13.10;72.77
56689;BME280;42565;53.342;-1.534;2023-08-07T04:40:04;99250.32;;;13.41;72.07
56689;BME280;42565;53.342;-1.534;2023-08-07T04:42:32;99253.24;;;13.45;72.06
56689;BME280;42565;53.342;-1.534;2023-08-07T04:44:58;99248.44;;;13.22;72.14
56689;BME280;42565;53.342;-1.534;2023-08-07T04:47:25;99245.24;;;13.00;71.17
56689;BME280;42565;53.342;-1.534;2023-08-07T04:49:52;99241.61;;;13.22;71.20
56689;BME280;42565;53.342;-1.534;2023-08-07T04:52:19;99243.87;;;12.88;70.28
56689;BME280;42565;53.342;-1.534;2023-08-07T04:54:46;99236.88;;;13.91;69.94
56689;BME280;42565;53.342;-1.534;2023-08-07T04:57:14;99237.09;;;13.69;70.98
56689;BME280;42565;53.342;-1.534;2023-08-07T04:59:40;99232.78;;;13.15;71.63
56689;BME280;42565;53.342;-1.534;2023-08-07T05:02:08;99230.13;;;12.93;71.73
56689;BME280;42565;53.342;-1.534;2023-08-07T05:04:35;99228.44;;;12.91;72.54
56689;BME280;42565;53.342;-1.534;2023-08-07T05:07:02;99230.29;;;12.82;73.32
56689;BME280;42565;53.342;-1.534;2023-08-07T05:09:30;99227.68;;;13.27;70.93
56689;BME280;42565;53.342;-1.534;2023-08-07T05:11:56;99226.89;;;13.69;69.96
56689;BME280;42565;53.342;-1.534;2023-08-07T05:14:23;99233.39;;;13.47;71.03
56689;BME280;42565;53.342;-1.534;2023-08-07T05:16:50;99227.49;;;12.98;71.56
56689;BME280;42565;53.342;-1.534;2023-08-07T05:19:17;99228.49;;;12.12;71.81
56689;BME280;42565;53.342;-1.534;2023-08-07T05:21:44;99224.62;;;13.31;71.43
56689;BME280;42565;53.342;-1.534;2023-08-07T05:24:11;99219.56;;;13.02;70.24
56689;BME280;42565;53.342;-1.534;2023-08-07T05:26:38;99224.27;;;13.57;70.50
56689;BME280;42565;53.342;-1.534;2023-08-07T05:29:05;99221.53;;;12.98;72.31
56689;BME280;42565;53.342;-1.534;2023-08-07T05:31:33;99226.81;;;12.93;72.11
56689;BME280;42565;53.342;-1.534;2023-08-07T05:34:00;99228.72;;;13.39;71.66
56689;BME280;42565;53.342;-1.534;2023-08-07T05:36:33;99231.87;;;12.06;69.58
56689;BME280;42565;53.342;-1.534;2023-08-07T05:39:00;99235.07;;;12.26;66.87
56689;BME280;42565;53.342;-1.534;2023-08-07T05:41:27;99239.54;;;13.77;66.71
56689;BME280;42565;53.342;-1.534;2023-08-07T05:43:54;99239.71;;;14.47;65.82
56689;BME280;42565;53.342;-1.534;2023-08-07T05:46:38;99247.51;;;13.44;66.14
56689;BME280;42565;53.342;-1.534;2023-08-07T05:49:05;99247.24;;;13.47;64.89
56689;BME280;42565;53.342;-1.534;2023-08-07T05:51:32;99255.82;;;15.00;63.42
56689;BME280;42565;53.342;-1.534;2023-08-07T05:53:59;99257.27;;;14.78;63.86
56689;BME280;42565;53.342;-1.534;2023-08-07T05:56:26;99257.35;;;15.10;64.67
56689;BME280;42565;53.342;-1.534;2023-08-07T05:58:54;99257.70;;;14.51;66.75
56689;BME280;42565;53.342;-1.534;2023-08-07T06:01:21;99254.57;;;13.90;67.93
56689;BME280;42565;53.342;-1.534;2023-08-07T06:03:49;99253.43;;;14.65;66.14
56689;BME280;42565;53.342;-1.534;2023-08-07T06:06:16;99255.31;;;14.32;67.46
56689;BME280;42565;53.342;-1.534;2023-08-07T06:08:42;99256.33;;;15.11;65.59
56689;BME280;42565;53.342;-1.534;2023-08-07T06:11:09;99256.31;;;14.66;65.02
56689;BME280;42565;53.342;-1.534;2023-08-07T06:13:36;99254.99;;;14.72;64.92
56689;BME280;42565;53.342;-1.534;2023-08-07T06:16:04;99256.84;;;14.77;65.42
56689;BME280;42565;53.342;-1.534;2023-08-07T06:18:31;99253.16;;;15.17;64.43
56689;BME280;42565;53.342;-1.534;2023-08-07T06:20:58;99252.79;;;14.79;64.24
56689;BME280;42565;53.342;-1.534;2023-08-07T06:23:25;99251.23;;;15.15;64.11
56689;BME280;42565;53.342;-1.534;2023-08-07T06:25:52;99248.61;;;14.47;65.97
56689;BME280;42565;53.342;-1.534;2023-08-07T06:28:19;99250.16;;;14.58;65.92
56689;BME280;42565;53.342;-1.534;2023-08-07T06:30:46;99254.89;;;15.08;64.66
56689;BME280;42565;53.342;-1.534;2023-08-07T06:33:14;99257.22;;;15.02;64.21
56689;BME280;42565;53.342;-1.534;2023-08-07T06:35:41;99262.21;;;15.20;65.22
56689;BME280;42565;53.342;-1.534;2023-08-07T06:38:08;99265.53;;;13.90;65.06
56689;BME280;42565;53.342;-1.534;2023-08-07T06:40:35;99273.26;;;15.22;64.93
56689;BME280;42565;53.342;-1.534;2023-08-07T06:43:02;99274.72;;;14.18;64.76
56689;BME280;42565;53.342;-1.534;2023-08-07T06:45:30;99275.41;;;15.52;63.20
56689;BME280;42565;53.342;-1.534;2023-08-07T06:47:57;99276.81;;;14.92;63.84
56689;BME280;42565;53.342;-1.534;2023-08-07T06:50:25;99274.65;;;14.57;64.63
56689;BME280;42565;53.342;-1.534;2023-08-07T06:52:52;99276.57;;;14.61;64.84
56689;BME280;42565;53.342;-1.534;2023-08-07T06:55:20;99275.95;;;14.49;63.50
56689;BME280;42565;53.342;-1.534;2023-08-07T06:57:47;99280.30;;;15.08;63.52
56689;BME280;42565;53.342;-1.534;2023-08-07T07:00:15;99283.53;;;15.07;62.79
56689;BME280;42565;53.342;-1.534;2023-08-07T07:02:42;99282.10;;;14.96;64.24
56689;BME280;42565;53.342;-1.534;2023-08-07T07:05:10;99281.34;;;15.55;62.56
56689;BME280;42565;53.342;-1.534;2023-08-07T07:07:38;99279.36;;;15.77;62.64
56689;BME280;42565;53.342;-1.534;2023-08-07T07:10:06;99284.49;;;14.77;60.19
56689;BME280;42565;53.342;-1.534;2023-08-07T07:12:33;99285.08;;;15.65;60.69
56689;BME280;42565;53.342;-1.534;2023-08-07T07:15:01;99293.02;;;14.57;61.38
56689;BME280;42565;53.342;-1.534;2023-08-07T07:17:28;99295.71;;;15.01;62.44
56689;BME280;42565;53.342;-1.534;2023-08-07T07:19:57;99293.42;;;15.78;61.58
56689;BME280;42565;53.342;-1.534;2023-08-07T07:22:23;99294.31;;;15.75;60.35
56689;BME280;42565;53.342;-1.534;2023-08-07T07:24:50;99294.48;;;16.36;60.83
56689;BME280;42565;53.342;-1.534;2023-08-07T07:27:17;99293.92;;;15.45;59.64
56689;BME280;42565;53.342;-1.534;2023-08-07T07:29:45;99295.34;;;15.72;60.94
56689;BME280;42565;53.342;-1.534;2023-08-07T07:32:12;99295.18;;;15.51;59.96
56689;BME280;42565;53.342;-1.534;2023-08-07T07:34:39;99294.16;;;15.11;62.21
56689;BME280;42565;53.342;-1.534;2023-08-07T07:37:07;99291.27;;;14.27;61.19
56689;BME280;42565;53.342;-1.534;2023-08-07T07:39:34;99287.60;;;15.24;60.61
56689;BME280;42565;53.342;-1.534;2023-08-07T07:42:01;99285.82;;;14.70;62.18
56689;BME280;42565;53.342;-1.534;2023-08-07T07:44:29;99285.39;;;15.28;61.33
56689;BME280;42565;53.342;-1.534;2023-08-07T07:46:56;99277.28;;;15.11;62.99
56689;BME280;42565;53.342;-1.534;2023-08-07T07:49:23;99273.69;;;15.58;61.65
56689;BME280;42565;53.342;-1.534;2023-08-07T07:51:51;99273.92;;;15.96;61.25
56689;BME280;42565;53.342;-1.534;2023-08-07T07:54:18;99270.43;;;15.75;61.15
56689;BME280;42565;53.342;-1.534;2023-08-07T07:56:46;99277.72;;;16.28;61.18
56689;BME280;42565;53.342;-1.534;2023-08-07T07:59:13;99276.86;;;16.19;61.23
56689;BME280;42565;53.342;-1.534;2023-08-07T08:01:40;99274.90;;;16.49;58.93
56689;BME280;42565;53.342;-1.534;2023-08-07T08:04:07;99276.80;;;16.52;60.81
56689;BME280;42565;53.342;-1.534;2023-08-07T08:06:35;99268.77;;;16.99;59.29
56689;BME280;42565;53.342;-1.534;2023-08-07T08:09:03;99271.31;;;17.68;56.77
56689;BME280;42565;53.342;-1.534;2023-08-07T08:11:30;99272.38;;;17.68;57.48
56689;BME280;42565;53.342;-1.534;2023-08-07T08:13:58;99277.01;;;17.32;58.00
56689;BME280;42565;53.342;-1.534;2023-08-07T08:16:25;99278.63;;;17.45;56.58
56689;BME280;42565;53.342;-1.534;2023-08-07T08:18:53;99282.61;;;18.16;56.85
56689;BME280;42565;53.342;-1.534;2023-08-07T08:21:20;99284.32;;;18.13;54.78
56689;BME280;42565;53.342;-1.534;2023-08-07T08:23:47;99281.11;;;18.38;53.20
56689;BME280;42565;53.342;-1.534;2023-08-07T08:26:14;99284.66;;;18.15;52.51
56689;BME280;42565;53.342;-1.534;2023-08-07T08:28:41;99284.99;;;17.61;54.35
56689;BME280;42565;53.342;-1.534;2023-08-07T08:31:09;99282.22;;;17.37;53.92
56689;BME280;42565;53.342;-1.534;2023-08-07T08:33:36;99278.63;;;18.42;53.27
56689;BME280;42565;53.342;-1.534;2023-08-07T08:36:04;99277.25;;;18.03;51.64
56689;BME280;42565;53.342;-1.534;2023-08-07T08:38:31;99274.79;;;18.08;50.52
56689;BME280;42565;53.342;-1.534;2023-08-07T08:41:00;99277.47;;;18.37;51.62
56689;BME280;42565;53.342;-1.534;2023-08-07T08:43:31;99277.05;;;17.81;52.21
56689;BME280;42565;53.342;-1.534;2023-08-07T08:46:01;99280.86;;;17.84;52.18
56689;BME280;42565;53.342;-1.534;2023-08-07T08:48:34;99280.18;;;18.92;49.32
56689;BME280;42565;53.342;-1.534;2023-08-07T08:51:02;99282.89;;;18.09;49.90
56689;BME280;42565;53.342;-1.534;2023-08-07T08:53:31;99284.55;;;18.04;49.63
56689;BME280;42565;53.342;-1.534;2023-08-07T08:55:59;99292.60;;;17.49;50.89
56689;BME280;42565;53.342;-1.534;2023-08-07T08:58:27;99287.78;;;17.60;51.29
56689;BME280;42565;53.342;-1.534;2023-08-07T09:00:56;99283.36;;;18.32;50.52
56689;BME280;42565;53.342;-1.534;2023-08-07T09:03:24;99289.52;;;18.80;49.06
56689;BME280;42565;53.342;-1.534;2023-08-07T09:05:53;99284.62;;;18.69;47.86
56689;BME280;42565;53.342;-1.534;2023-08-07T09:08:21;99282.95;;;18.29;49.16
56689;BME280;42565;53.342;-1.534;2023-08-07T09:10:50;99281.18;;;18.33;49.35
56689;BME280;42565;53.342;-1.534;2023-08-07T09:13:21;99282.62;;;17.82;51.00
56689;BME280;42565;53.342;-1.534;2023-08-07T09:15:50;99278.75;;;17.97;51.61
56689;BME280;42565;53.342;-1.534;2023-08-07T09:18:18;99277.50;;;17.30;52.20
56689;BME280;42565;53.342;-1.534;2023-08-07T09:20:46;99278.10;;;17.99;52.38
56689;BME280;42565;53.342;-1.534;2023-08-07T09:23:15;99272.37;;;18.33;50.94
56689;BME280;42565;53.342;-1.534;2023-08-07T09:25:42;99273.35;;;18.80;50.76
56689;BME280;42565;53.342;-1.534;2023-08-07T09:28:10;99270.69;;;18.74;49.93
56689;BME280;42565;53.342;-1.534;2023-08-07T09:30:38;99266.04;;;18.92;48.29
56689;BME280;42565;53.342;-1.534;2023-08-07T09:33:05;99264.01;;;18.30;47.81
56689;BME280;42565;53.342;-1.534;2023-08-07T09:35:32;99263.20;;;19.23;48.03
56689;BME280;42565;53.342;-1.534;2023-08-07T09:37:59;99264.46;;;17.95;49.33
56689;BME280;42565;53.342;-1.534;2023-08-07T09:40:28;99263.27;;;18.88;49.46
56689;BME280;42565;53.342;-1.534;2023-08-07T09:42:56;99260.63;;;19.13;47.57
56689;BME280;42565;53.342;-1.534;2023-08-07T09:45:25;99263.04;;;18.72;48.24
56689;BME280;42565;53.342;-1.534;2023-08-07T09:48:00;99261.73;;;18.27;50.30
56689;BME280;42565;53.342;-1.534;2023-08-07T09:50:29;99256.07;;;18.76;50.28
56689;BME280;42565;53.342;-1.534;2023-08-07T09:52:56;99267.42;;;18.39;51.00
56689;BME280;42565;53.342;-1.534;2023-08-07T09:55:24;99261.65;;;18.35;51.60
56689;BME280;42565;53.342;-1.534;2023-08-07T09:57:52;99261.48;;;18.65;50.16
56689;BME280;42565;53.342;-1.534;2023-08-07T10:00:20;99258.72;;;18.76;51.82
56689;BME280;42565;53.342;-1.534;2023-08-07T10:02:48;99243.51;;;18.07;51.72
56689;BME280;42565;53.342;-1.534;2023-08-07T10:05:16;99247.49;;;18.49;51.11
56689;BME280;42565;53.342;-1.534;2023-08-07T10:07:44;99242.14;;;19.76;50.24
56689;BME280;42565;53.342;-1.534;2023-08-07T10:10:12;99242.52;;;19.06;49.92
56689;BME280;42565;53.342;-1.534;2023-08-07T10:12:41;99240.82;;;20.12;48.58
56689;BME280;42565;53.342;-1.534;2023-08-07T10:15:09;99239.13;;;19.29;45.94
56689;BME280;42565;53.342;-1.534;2023-08-07T10:17:36;99239.49;;;20.06;43.24
56689;BME280;42565;53.342;-1.534;2023-08-07T10:20:05;99243.65;;;18.80;46.25
56689;BME280;42565;53.342;-1.534;2023-08-07T10:22:32;99244.26;;;18.54;48.83
56689;BME280;42565;53.342;-1.534;2023-08-07T10:25:02;99235.34;;;19.23;46.11
56689;BME280;42565;53.342;-1.534;2023-08-07T10:27:31;99228.05;;;20.30;46.91
56689;BME280;42565;53.342;-1.534;2023-08-07T10:30:02;99229.63;;;19.99;43.47
56689;BME280;42565;53.342;-1.534;2023-08-07T10:32:32;99229.98;;;19.70;45.15
56689;BME280;42565;53.342;-1.534;2023-08-07T10:35:03;99225.84;;;19.43;43.69
56689;BME280;42565;53.342;-1.534;2023-08-07T10:37:38;99221.20;;;19.53;39.89
56689;BME280;42565;53.342;-1.534;2023-08-07T10:40:07;99225.10;;;19.05;40.62
56689;BME280;42565;53.342;-1.534;2023-08-07T10:42:51;99216.08;;;20.49;41.23
56689;BME280;42565;53.342;-1.534;2023-08-07T10:45:19;99214.92;;;20.24;41.09
56689;BME280;42565;53.342;-1.534;2023-08-07T10:47:57;99227.29;;;20.42;40.72
56689;BME280;42565;53.342;-1.534;2023-08-07T10:50:28;99228.14;;;19.29;40.58
56689;BME280;42565;53.342;-1.534;2023-08-07T10:52:56;99219.31;;;19.34;41.24
56689;BME280;42565;53.342;-1.534;2023-08-07T10:55:26;99212.17;;;19.89;40.89
56689;BME280;42565;53.342;-1.534;2023-08-07T10:57:54;99222.41;;;19.56;39.77
56689;BME280;42565;53.342;-1.534;2023-08-07T11:00:26;99214.71;;;19.86;37.66
56689;BME280;42565;53.342;-1.534;2023-08-07T11:02:54;99216.25;;;20.33;39.22
56689;BME280;42565;53.342;-1.534;2023-08-07T11:05:23;99213.82;;;20.09;42.06
56689;BME280;42565;53.342;-1.534;2023-08-07T11:07:50;99211.03;;;21.01;39.18
56689;BME280;42565;53.342;-1.534;2023-08-07T11:10:19;99209.19;;;20.60;39.08
56689;BME280;42565;53.342;-1.534;2023-08-07T11:12:46;99203.28;;;20.77;39.66
56689;BME280;42565;53.342;-1.534;2023-08-07T11:15:14;99201.81;;;20.01;40.66
56689;BME280;42565;53.342;-1.534;2023-08-07T11:17:41;99203.78;;;20.45;40.53
56689;BME280;42565;53.342;-1.534;2023-08-07T11:20:10;99208.21;;;19.32;41.57
56689;BME280;42565;53.342;-1.534;2023-08-07T11:22:38;99215.81;;;20.06;40.80
56689;BME280;42565;53.342;-1.534;2023-08-07T11:25:07;99216.94;;;18.30;40.26
56689;BME280;42565;53.342;-1.534;2023-08-07T11:27:34;99214.92;;;19.31;40.85
56689;BME280;42565;53.342;-1.534;2023-08-07T11:30:02;99213.73;;;18.57;41.75
56689;BME280;42565;53.342;-1.534;2023-08-07T11:32:29;99212.56;;;18.33;41.89
56689;BME280;42565;53.342;-1.534;2023-08-07T11:34:58;99210.52;;;18.93;42.95
56689;BME280;42565;53.342;-1.534;2023-08-07T11:37:26;99219.78;;;19.61;43.32
56689;BME280;42565;53.342;-1.534;2023-08-07T11:40:00;99218.99;;;19.65;42.57
56689;BME280;42565;53.342;-1.534;2023-08-07T11:42:28;99223.53;;;17.98;44.91
56689;BME280;42565;53.342;-1.534;2023-08-07T11:44:56;99222.47;;;18.46;45.80
56689;BME280;42565;53.342;-1.534;2023-08-07T11:47:23;99223.48;;;17.87;46.48
56689;BME280;42565;53.342;-1.534;2023-08-07T11:49:52;99230.77;;;18.41;48.88
56689;BME280;42565;53.342;-1.534;2023-08-07T11:52:20;99228.91;;;17.23;49.02
56689;BME280;42565;53.342;-1.534;2023-08-07T11:54:47;99228.16;;;17.79;49.27
56689;BME280;42565;53.342;-1.534;2023-08-07T11:57:16;99224.10;;;17.96;49.34
56689;BME280;42565;53.342;-1.534;2023-08-07T11:59:47;99222.47;;;18.10;51.32
56689;BME280;42565;53.342;-1.534;2023-08-07T12:02:15;99221.85;;;16.89;51.15
56689;BME280;42565;53.342;-1.534;2023-08-07T12:04:42;99222.09;;;17.29;51.96
56689;BME280;42565;53.342;-1.534;2023-08-07T12:07:10;99224.70;;;16.73;52.12
56689;BME280;42565;53.342;-1.534;2023-08-07T12:09:37;99221.48;;;17.44;52.57
56689;BME280;42565;53.342;-1.534;2023-08-07T12:12:06;99218.41;;;17.77;51.06
56689;BME280;42565;53.342;-1.534;2023-08-07T12:14:35;99225.96;;;17.71;51.19
56689;BME280;42565;53.342;-1.534;2023-08-07T12:17:03;99224.97;;;17.96;49.71
56689;BME280;42565;53.342;-1.534;2023-08-07T12:19:38;99224.59;;;17.96;49.19
56689;BME280;42565;53.342;-1.534;2023-08-07T12:22:06;99216.82;;;16.19;50.96
56689;BME280;42565;53.342;-1.534;2023-08-07T12:24:35;99218.04;;;17.77;49.59
56689;BME280;42565;53.342;-1.534;2023-08-07T12:27:03;99212.39;;;17.18;48.63
56689;BME280;42565;53.342;-1.534;2023-08-07T12:29:31;99208.43;;;17.18;50.68
56689;BME280;42565;53.342;-1.534;2023-08-07T12:31:58;99204.90;;;17.67;49.51
56689;BME280;42565;53.342;-1.534;2023-08-07T12:34:25;99196.89;;;17.85;50.19
56689;BME280;42565;53.342;-1.534;2023-08-07T12:36:52;99199.72;;;18.16;49.03
56689;BME280;42565;53.342;-1.534;2023-08-07T12:39:20;99195.42;;;17.99;49.19
56689;BME280;42565;53.342;-1.534;2023-08-07T12:41:47;99196.90;;;17.88;49.43
56689;BME280;42565;53.342;-1.534;2023-08-07T12:44:14;99194.19;;;17.18;48.02
56689;BME280;42565;53.342;-1.534;2023-08-07T12:46:42;99196.66;;;17.57;49.86
56689;BME280;42565;53.342;-1.534;2023-08-07T12:49:09;99197.15;;;16.77;49.36
56689;BME280;42565;53.342;-1.534;2023-08-07T12:51:37;99195.54;;;16.83;50.07
56689;BME280;42565;53.342;-1.534;2023-08-07T12:54:05;99196.89;;;16.79;49.89